Time;durP1;ratioP1;P1;durP2;ratioP2;P2;SDS_P1;SDS_P2;PMS_P1;PMS_P2;Temp;Humidity;BMP_temperature;BMP_pressure;BME280_temperature;BME280_humidity;BME280_pressure;Samples;Min_cycle;Max_cycle;Signal;HPM_P1;HPM_P2
2021/04/14 00:01:53;;;;;;;18.30;3.95;;;3.50;99.90;;;;;;5028474;28;20064;-52
2021/04/14 00:04:18;;;;;;;9.00;3.28;;;3.40;99.90;;;;;;5029424;28;20117;-53
2021/04/14 00:06:44;;;;;;;17.20;3.17;;;3.40;99.90;;;;;;5027502;28;20570;-50
2021/04/14 00:09:10;;;;;;;11.13;3.35;;;3.30;99.90;;;;;;5028349;28;20034;-50
2021/04/14 00:11:36;;;;;;;8.50;3.13;;;3.20;99.90;;;;;;5029553;28;20029;-53
2021/04/14 00:14:03;;;;;;;10.25;3.92;;;3.20;99.90;;;;;;5022573;28;20053;-53
2021/04/14 00:16:29;;;;;;;10.63;3.60;;;3.20;99.90;;;;;;5029148;28;20034;-54
2021/04/14 00:18:55;;;;;;;12.43;4.05;;;3.10;99.90;;;;;;5027049;28;20041;-53
2021/04/14 00:21:23;;;;;;;9.73;3.45;;;3.00;99.90;;;;;;5028768;28;20037;-55
2021/04/14 00:23:49;;;;;;;11.65;4.05;;;2.90;99.90;;;;;;5011603;28;20083;-54
2021/04/14 00:26:15;;;;;;;9.48;3.58;;;2.80;99.90;;;;;;5027974;28;20029;-54
2021/04/14 00:28:42;;;;;;;8.93;3.70;;;2.80;99.90;;;;;;5029720;28;20033;-52
2021/04/14 00:31:08;;;;;;;12.15;3.40;;;2.70;99.90;;;;;;5029996;28;20079;-53
2021/04/14 00:33:34;;;;;;;11.73;3.30;;;2.70;99.90;;;;;;5037338;28;20044;-52
2021/04/14 00:36:00;;;;;;;7.38;3.58;;;2.70;99.90;;;;;;5026039;28;20112;-54
2021/04/14 00:38:25;;;;;;;10.20;4.53;;;2.70;99.90;;;;;;5028934;28;20482;-51
2021/04/14 00:41:14;;;;;;;10.95;5.60;;;2.80;99.90;;;;;;5028644;28;20155;-54
2021/04/14 00:43:40;;;;;;;6.25;3.38;;;2.90;99.90;;;;;;5029260;28;20056;-50
2021/04/14 00:46:07;;;;;;;12.10;3.22;;;2.80;99.90;;;;;;5028305;28;20057;-51
2021/04/14 00:48:33;;;;;;;10.93;3.22;;;2.70;99.90;;;;;;5031128;28;20069;-50
2021/04/14 00:51:00;;;;;;;13.45;4.15;;;2.70;99.90;;;;;;5036366;28;20041;-50
2021/04/14 00:53:26;;;;;;;10.13;3.45;;;2.70;99.90;;;;;;5028830;28;20044;-52
2021/04/14 00:55:53;;;;;;;12.35;3.25;;;2.50;99.90;;;;;;5028822;28;20064;-50
2021/04/14 00:58:19;;;;;;;8.95;3.50;;;2.40;99.90;;;;;;5028937;28;20026;-52
2021/04/14 01:00:48;;;;;;;10.05;4.40;;;2.40;99.90;;;;;;5028523;28;20037;-54
2021/04/14 01:03:18;;;;;;;10.98;3.70;;;2.30;99.90;;;;;;5028810;28;20476;-52
2021/04/14 01:05:44;;;;;;;5.22;3.00;;;2.20;99.90;;;;;;5026846;28;20111;-52
2021/04/14 01:08:10;;;;;;;10.55;4.47;;;2.10;99.90;;;;;;5028982;28;20061;-54
2021/04/14 01:10:36;;;;;;;11.15;3.58;;;2.10;99.90;;;;;;5028963;28;20062;-54
2021/04/14 01:13:03;;;;;;;13.40;3.67;;;2.00;99.90;;;;;;5028790;28;20040;-54
2021/04/14 01:15:32;;;;;;;10.48;3.88;;;2.10;99.90;;;;;;5027889;28;20422;-54
2021/04/14 01:17:57;;;;;;;10.52;3.15;;;2.20;99.90;;;;;;5029293;28;20501;-56
2021/04/14 01:20:23;;;;;;;10.27;3.30;;;2.20;99.90;;;;;;5031993;28;20033;-54
2021/04/14 01:22:49;;;;;;;7.78;3.25;;;2.10;99.90;;;;;;5034838;28;20049;-51
2021/04/14 01:25:21;;;;;;;6.18;3.85;;;2.10;99.90;;;;;;5030197;28;20518;-51
2021/04/14 01:27:47;;;;;;;8.57;3.92;;;2.20;99.90;;;;;;5032440;28;20087;-51
2021/04/14 01:30:27;;;;;;;7.93;3.70;;;2.20;99.90;;;;;;5032064;28;20030;-54
2021/04/14 01:32:53;;;;;;;16.13;3.95;;;2.30;99.90;;;;;;5032062;28;20049;-54
2021/04/14 01:35:22;;;;;;;7.18;4.18;;;2.40;99.90;;;;;;5030698;28;20466;-54
2021/04/14 01:37:49;;;;;;;11.95;4.10;;;2.30;99.90;;;;;;5032588;28;20113;-55
2021/04/14 01:40:15;;;;;;;12.43;4.40;;;2.30;99.90;;;;;;5040704;28;20084;-54
2021/04/14 01:42:41;;;;;;;9.50;3.90;;;2.10;99.90;;;;;;5032070;28;20407;-51
2021/04/14 01:45:09;;;;;;;7.07;3.80;;;2.10;99.90;;;;;;5030503;28;20055;-54
2021/04/14 01:47:35;;;;;;;7.63;4.22;;;2.00;99.90;;;;;;5031108;28;20125;-54
2021/04/14 01:50:00;;;;;;;8.05;3.83;;;1.90;99.90;;;;;;5031938;28;20101;-54
2021/04/14 01:52:26;;;;;;;9.27;3.80;;;1.80;99.90;;;;;;5031266;28;20068;-55
2021/04/14 01:54:51;;;;;;;14.80;4.50;;;1.80;99.90;;;;;;5034394;28;20061;-51
2021/04/14 01:57:17;;;;;;;9.30;4.07;;;1.70;99.90;;;;;;5032692;28;20041;-50
2021/04/14 01:59:43;;;;;;;16.20;4.15;;;1.60;99.90;;;;;;5032416;28;20391;-54
2021/04/14 02:02:08;;;;;;;14.63;4.57;;;1.60;99.90;;;;;;5031351;28;20116;-53
2021/04/14 02:04:35;;;;;;;9.85;4.32;;;1.50;99.90;;;;;;5031300;28;20036;-54
2021/04/14 02:07:00;;;;;;;11.15;4.22;;;1.50;99.90;;;;;;5031224;28;20037;-52
2021/04/14 02:09:26;;;;;;;12.55;4.60;;;1.50;99.90;;;;;;5031581;28;20040;-53
2021/04/14 02:11:51;;;;;;;14.32;4.72;;;1.40;99.90;;;;;;5034760;28;20026;-54
2021/04/14 02:14:17;;;;;;;13.23;4.72;;;1.30;99.90;;;;;;5017270;28;20069;-54
2021/04/14 02:16:43;;;;;;;11.77;4.93;;;1.30;99.90;;;;;;5031673;28;20053;-50
2021/04/14 02:19:09;;;;;;;10.25;4.70;;;1.30;99.90;;;;;;5031474;28;20072;-51
2021/04/14 02:21:35;;;;;;;11.10;5.28;;;1.20;99.90;;;;;;5031415;28;20029;-54
2021/04/14 02:24:01;;;;;;;9.48;4.85;;;1.20;99.90;;;;;;5031295;28;20025;-54
2021/04/14 02:26:27;;;;;;;11.48;4.78;;;1.20;99.90;;;;;;5024384;28;20152;-54
2021/04/14 02:28:53;;;;;;;11.85;5.30;;;1.20;99.90;;;;;;5039869;28;20026;-52
2021/04/14 02:31:31;;;;;;;9.63;5.13;;;1.20;99.90;;;;;;5033018;28;20074;-52
2021/04/14 02:34:10;;;;;;;15.25;5.72;;;1.20;99.90;;;;;;5039592;28;20036;-53
2021/04/14 02:36:35;;;;;;;14.65;6.20;;;1.20;99.90;;;;;;5032311;28;20098;-54
2021/04/14 02:39:02;;;;;;;14.52;5.70;;;1.20;99.90;;;;;;5030696;28;20038;-53
2021/04/14 02:41:27;;;;;;;14.02;5.60;;;1.10;99.90;;;;;;5030390;28;20431;-51
2021/04/14 02:43:54;;;;;;;12.55;5.60;;;1.00;99.90;;;;;;5030840;28;20513;-53
2021/04/14 02:46:23;;;;;;;12.45;5.18;;;0.90;99.90;;;;;;5031119;28;20017;-54
2021/04/14 02:48:49;;;;;;;14.50;5.38;;;0.90;99.90;;;;;;5024895;28;20038;-54
2021/04/14 02:51:15;;;;;;;11.65;5.43;;;0.90;99.90;;;;;;5037431;28;20030;-54
2021/04/14 02:53:41;;;;;;;22.05;6.50;;;0.90;99.90;;;;;;5030640;28;20096;-54
2021/04/14 02:56:07;;;;;;;13.35;5.40;;;0.80;99.90;;;;;;5030396;28;20036;-54
2021/04/14 02:58:33;;;;;;;15.68;5.45;;;0.80;99.90;;;;;;5028105;28;20117;-54
2021/04/14 03:00:59;;;;;;;16.20;5.88;;;0.80;99.90;;;;;;5029954;28;20112;-53
2021/04/14 03:03:27;;;;;;;11.23;5.43;;;0.70;99.90;;;;;;5030180;28;20518;-53
2021/04/14 03:05:53;;;;;;;12.55;5.35;;;0.70;99.90;;;;;;5054827;22;20096;-53
2021/04/14 03:08:18;;;;;;;15.15;5.03;;;0.70;99.90;;;;;;5048118;28;20029;-58
2021/04/14 03:10:44;;;;;;;12.95;6.50;;;0.60;99.90;;;;;;5047479;28;20367;-59
2021/04/14 03:13:10;;;;;;;9.68;5.40;;;0.60;99.90;;;;;;5030429;28;20036;-58
2021/04/14 03:15:39;;;;;;;19.70;6.40;;;0.50;99.90;;;;;;5051004;28;20029;-59
2021/04/14 03:18:10;;;;;;;11.75;5.28;;;0.50;99.90;;;;;;5025410;28;20586;-58
2021/04/14 03:20:35;;;;;;;14.55;5.50;;;0.40;99.90;;;;;;5029541;28;20322;-57
2021/04/14 03:23:02;;;;;;;17.02;6.07;;;0.40;99.90;;;;;;5033158;28;20022;-57
2021/04/14 03:25:31;;;;;;;18.48;5.95;;;0.40;99.90;;;;;;5035123;28;20053;-58
2021/04/14 03:28:01;;;;;;;20.73;6.95;;;0.40;99.90;;;;;;5033641;28;20359;-58
2021/04/14 03:30:27;;;;;;;14.32;6.25;;;0.50;99.90;;;;;;5028923;28;20111;-59
2021/04/14 03:32:53;;;;;;;15.75;7.32;;;0.40;99.90;;;;;;5028722;28;20037;-57
2021/04/14 03:35:20;;;;;;;11.82;5.82;;;0.50;99.90;;;;;;5029936;28;20040;-59
2021/04/14 03:37:45;;;;;;;19.48;6.47;;;0.40;99.90;;;;;;5028619;28;20056;-56
2021/04/14 03:40:12;;;;;;;16.85;6.30;;;0.50;99.90;;;;;;5031758;28;20488;-58
2021/04/14 03:42:37;;;;;;;20.48;5.97;;;0.50;99.90;;;;;;5028703;28;20112;-59
2021/04/14 03:45:14;;;;;;;12.10;5.55;;;0.50;99.90;;;;;;5030330;28;20121;-59
2021/04/14 03:47:41;;;;;;;14.50;6.03;;;0.40;99.90;;;;;;5030711;28;20403;-59
2021/04/14 03:50:08;;;;;;;14.70;5.90;;;0.40;99.90;;;;;;5024640;28;20026;-57
2021/04/14 03:52:34;;;;;;;15.73;8.00;;;0.40;99.90;;;;;;5028760;28;20037;-57
2021/04/14 03:55:00;;;;;;;18.63;6.82;;;0.40;99.90;;;;;;5034512;28;20094;-56
2021/04/14 03:57:25;;;;;;;29.52;6.93;;;0.40;99.90;;;;;;5030379;28;20068;-59
2021/04/14 03:59:51;;;;;;;18.38;6.53;;;0.40;99.90;;;;;;5017759;28;20026;-57
2021/04/14 04:02:17;;;;;;;19.05;6.80;;;0.40;99.90;;;;;;5024099;28;20034;-57
2021/04/14 04:04:42;;;;;;;18.55;6.97;;;0.40;99.90;;;;;;5029794;28;20030;-57
2021/04/14 04:07:08;;;;;;;16.98;6.53;;;0.40;99.90;;;;;;5030988;28;20045;-58
2021/04/14 04:09:33;;;;;;;13.50;6.60;;;0.40;99.90;;;;;;5027903;28;20034;-58
2021/04/14 04:11:59;;;;;;;12.55;5.68;;;0.30;99.90;;;;;;5033646;28;20040;-58
2021/04/14 04:14:28;;;;;;;12.63;6.03;;;0.30;99.90;;;;;;5030191;28;20036;-55
2021/04/14 04:16:53;;;;;;;15.73;6.90;;;0.30;99.90;;;;;;5027390;28;20524;-57
2021/04/14 04:19:19;;;;;;;15.48;7.13;;;0.30;99.90;;;;;;5026583;28;20171;-58
2021/04/14 04:21:44;;;;;;;17.92;6.93;;;0.30;99.90;;;;;;5025540;28;20533;-56
2021/04/14 04:24:10;;;;;;;21.08;7.80;;;0.30;99.90;;;;;;5029959;28;20034;-60
2021/04/14 04:26:36;;;;;;;15.10;6.25;;;0.30;99.90;;;;;;5031769;28;20021;-59
2021/04/14 04:29:01;;;;;;;17.13;6.95;;;0.30;99.90;;;;;;5015966;28;20120;-59
2021/04/14 04:31:27;;;;;;;13.15;6.32;;;0.40;99.90;;;;;;5028143;28;20029;-58
2021/04/14 04:33:52;;;;;;;14.55;7.38;;;0.50;99.90;;;;;;5022977;28;20029;-59
2021/04/14 04:36:18;;;;;;;17.42;6.60;;;0.60;99.90;;;;;;5020335;28;20042;-59
2021/04/14 04:38:43;;;;;;;13.90;7.13;;;0.60;99.90;;;;;;5026333;28;20029;-59
2021/04/14 04:41:09;;;;;;;19.40;7.57;;;0.60;99.90;;;;;;5029579;28;20040;-58
2021/04/14 04:43:35;;;;;;;12.48;7.45;;;0.50;99.90;;;;;;5029591;28;20110;-56
2021/04/14 04:46:00;;;;;;;12.32;6.68;;;0.50;99.90;;;;;;5028819;28;20026;-57
2021/04/14 04:48:26;;;;;;;18.98;7.00;;;0.40;99.90;;;;;;5029928;28;20029;-58
2021/04/14 04:50:51;;;;;;;14.27;7.10;;;0.30;99.90;;;;;;5027089;28;20041;-55
2021/04/14 04:53:21;;;;;;;14.60;7.10;;;0.20;99.90;;;;;;5028996;28;20034;-55
2021/04/14 04:55:48;;;;;;;14.15;6.88;;;0.20;99.90;;;;;;5022282;28;20044;-58
2021/04/14 04:58:14;;;;;;;18.98;7.65;;;0.10;99.90;;;;;;5036560;28;20016;-58
2021/04/14 05:00:40;;;;;;;16.13;7.97;;;0.10;99.90;;;;;;5028427;28;20033;-58
2021/04/14 05:03:06;;;;;;;18.83;9.52;;;0.20;99.90;;;;;;5033822;28;20391;-58
2021/04/14 05:05:37;;;;;;;22.77;7.80;;;0.20;99.90;;;;;;5026133;28;20029;-58
2021/04/14 05:08:04;;;;;;;19.98;8.55;;;0.30;99.90;;;;;;5030433;28;20406;-58
2021/04/14 05:10:32;;;;;;;22.27;10.65;;;0.30;99.90;;;;;;5033755;28;20414;-57
2021/04/14 05:12:58;;;;;;;28.48;10.60;;;0.40;99.90;;;;;;5033433;28;20033;-59
2021/04/14 05:15:29;;;;;;;25.33;12.43;;;0.50;99.90;;;;;;5029024;28;20041;-58
2021/04/14 05:17:55;;;;;;;35.85;15.00;;;0.60;99.90;;;;;;5032406;28;20040;-58
2021/04/14 05:20:21;;;;;;;39.67;15.45;;;0.70;99.90;;;;;;5032364;28;20030;-57
2021/04/14 05:22:47;;;;;;;46.30;16.65;;;0.80;99.90;;;;;;5029868;28;20025;-58
2021/04/14 05:25:16;;;;;;;36.92;13.70;;;0.80;99.90;;;;;;5026374;28;20095;-58
2021/04/14 05:27:43;;;;;;;47.38;13.35;;;0.90;99.90;;;;;;5029919;28;20034;-57
2021/04/14 05:30:09;;;;;;;42.97;14.60;;;0.90;99.90;;;;;;5010221;28;20029;-58
2021/04/14 05:32:35;;;;;;;32.35;12.02;;;0.90;99.90;;;;;;5031314;28;20056;-55
2021/04/14 05:35:01;;;;;;;38.70;12.68;;;0.90;99.90;;;;;;5027024;28;20488;-59
2021/04/14 05:37:27;;;;;;;39.30;12.20;;;1.00;99.90;;;;;;5025978;28;20037;-57
2021/04/14 05:39:54;;;;;;;51.22;11.70;;;1.00;99.90;;;;;;5031257;28;20022;-58
2021/04/14 05:42:19;;;;;;;48.42;13.63;;;1.10;99.90;;;;;;5034185;28;20028;-57
2021/04/14 05:44:45;;;;;;;43.90;13.50;;;1.10;99.90;;;;;;5030113;28;20022;-56
2021/04/14 05:47:11;;;;;;;32.90;10.60;;;1.30;99.90;;;;;;5025385;28;20034;-58
2021/04/14 05:49:36;;;;;;;26.52;11.48;;;1.40;99.90;;;;;;5027159;28;20105;-58
2021/04/14 05:52:02;;;;;;;27.73;12.52;;;1.60;99.90;;;;;;5027471;28;20135;-57
2021/04/14 05:54:27;;;;;;;24.38;11.50;;;1.70;99.90;;;;;;5039608;28;20491;-57
2021/04/14 05:56:53;;;;;;;25.00;10.85;;;1.80;99.90;;;;;;5035204;28;20025;-57
2021/04/14 05:59:18;;;;;;;22.27;10.57;;;1.90;99.90;;;;;;5034683;28;20488;-58
2021/04/14 06:01:44;;;;;;;19.98;10.77;;;2.00;99.90;;;;;;5036270;28;20029;-58
2021/04/14 06:04:11;;;;;;;22.85;10.80;;;2.20;99.90;;;;;;5030248;28;20104;-58
2021/04/14 06:06:37;;;;;;;21.98;10.82;;;2.30;99.90;;;;;;5036888;28;20113;-58
2021/04/14 06:09:04;;;;;;;25.55;11.02;;;2.40;99.90;;;;;;5030242;28;20104;-57
2021/04/14 06:11:30;;;;;;;19.85;10.05;;;2.50;99.90;;;;;;5029038;28;20152;-57
2021/04/14 06:13:56;;;;;;;27.73;10.52;;;2.50;99.90;;;;;;5031710;28;20442;-58
2021/04/14 06:16:22;;;;;;;25.42;11.73;;;2.60;99.90;;;;;;5034746;28;20033;-59
2021/04/14 06:18:47;;;;;;;23.98;11.35;;;2.60;99.90;;;;;;5037657;28;20026;-59
2021/04/14 06:21:15;;;;;;;20.15;11.02;;;2.70;99.90;;;;;;5034023;28;20400;-58
2021/04/14 06:23:41;;;;;;;25.48;10.68;;;2.80;99.90;;;;;;5025329;28;20021;-58
2021/04/14 06:28:32;;;;;;;16.10;10.45;;;3.10;99.90;;;;;;5034212;28;20025;-58
2021/04/14 06:30:58;;;;;;;19.45;11.00;;;3.20;99.90;;;;;;5030848;28;20029;-57
2021/04/14 06:33:24;;;;;;;25.27;11.15;;;3.20;99.90;;;;;;5040921;28;20029;-59
2021/04/14 06:35:52;;;;;;;24.58;11.27;;;3.30;99.90;;;;;;5033297;28;20033;-58
2021/04/14 06:38:23;;;;;;;19.33;11.52;;;3.40;99.90;;;;;;5034075;28;20506;-58
2021/04/14 06:41:19;;;;;;;18.45;11.50;;;3.40;99.90;;;;;;5027249;28;20026;-58
2021/04/14 06:44:22;;;;;;;20.20;10.40;;;3.50;99.90;;;;;;5034902;28;20029;-58
2021/04/14 06:46:50;;;;;;;22.20;10.55;;;3.50;99.90;;;;;;5032840;28;20025;-58
2021/04/14 06:49:38;;;;;;;24.67;9.88;;;3.60;99.90;;;;;;5013084;28;20104;-56
2021/04/14 06:52:14;;;;;;;22.13;10.63;;;3.70;99.90;;;;;;5030463;28;20049;-58
2021/04/14 06:54:49;;;;;;;21.00;9.35;;;3.80;99.90;;;;;;5031858;28;20026;-56
2021/04/14 06:57:25;;;;;;;24.67;9.18;;;3.80;99.90;;;;;;5029972;28;20029;-59
2021/04/14 07:00:08;;;;;;;18.25;9.98;;;3.90;99.90;;;;;;5033934;28;20021;-58
2021/04/14 07:02:41;;;;;;;26.92;11.35;;;4.00;99.90;;;;;;5023271;28;20033;-58
2021/04/14 07:05:13;;;;;;;21.67;10.85;;;4.10;99.90;;;;;;5032559;28;20021;-58
2021/04/14 07:07:40;;;;;;;18.08;10.38;;;4.20;99.90;;;;;;5026598;28;20116;-58
2021/04/14 07:10:25;;;;;;;16.95;9.20;;;4.30;99.90;;;;;;5033673;28;20025;-58
2021/04/14 07:12:53;;;;;;;20.73;11.20;;;4.40;99.90;;;;;;5020043;28;20025;-58
2021/04/14 07:15:20;;;;;;;21.65;9.77;;;4.40;99.90;;;;;;5031878;28;20031;-58
2021/04/14 07:18:01;;;;;;;24.67;10.85;;;4.50;99.90;;;;;;5027058;28;20030;-58
2021/04/14 07:20:36;;;;;;;22.55;9.93;;;4.50;99.90;;;;;;5035421;28;20029;-61
2021/04/14 07:23:20;;;;;;;20.05;9.65;;;4.60;99.90;;;;;;5034342;28;20040;-58
2021/04/14 07:25:53;;;;;;;21.20;9.93;;;4.70;99.90;;;;;;5041369;28;20024;-59
2021/04/14 07:28:56;;;;;;;13.87;7.37;;;4.80;99.90;;;;;;5028721;28;20434;-59
2021/04/14 07:31:50;;;;;;;18.75;10.20;;;4.80;99.90;;;;;;5035790;28;20036;-59
2021/04/14 07:34:22;;;;;;;18.42;9.75;;;5.00;99.90;;;;;;5036772;28;20036;-59
2021/04/14 07:37:07;;;;;;;24.92;9.93;;;5.10;99.90;;;;;;5031432;28;20041;-58
2021/04/14 07:39:38;;;;;;;25.52;11.60;;;5.20;99.90;;;;;;5027991;28;20104;-58
2021/04/14 07:42:12;;;;;;;25.05;10.75;;;5.40;99.90;;;;;;5038033;28;20102;-58
2021/04/14 07:44:59;;;;;;;22.98;12.35;;;5.50;99.90;;;;;;5041012;28;20067;-59
2021/04/14 07:47:25;;;;;;;20.83;10.55;;;5.60;99.90;;;;;;5027712;28;20025;-57
2021/04/14 07:49:51;;;;;;;27.80;11.55;;;5.80;99.90;;;;;;5034855;28;20033;-57
2021/04/14 07:52:25;;;;;;;30.75;12.82;;;5.90;99.90;;;;;;5028019;28;20087;-59
2021/04/14 07:54:52;;;;;;;24.02;12.55;;;6.00;99.90;;;;;;5035302;28;20427;-58
2021/04/14 07:57:30;;;;;;;24.92;11.48;;;6.10;99.90;;;;;;5025278;28;20033;-59
2021/04/14 08:00:07;;;;;;;18.13;10.98;;;6.20;99.90;;;;;;5037716;28;20033;-58
2021/04/14 08:02:33;;;;;;;23.83;11.65;;;6.30;99.90;;;;;;5030726;28;20052;-59
2021/04/14 08:05:09;;;;;;;34.80;16.58;;;6.40;99.90;;;;;;5039813;28;20041;-58
2021/04/14 08:07:40;;;;;;;11.48;6.75;;;6.70;99.90;;;;;;5031611;28;20029;-59
2021/04/14 08:10:12;;;;;;;20.60;8.63;;;6.90;99.90;;;;;;5029311;28;20030;-58
2021/04/14 08:12:49;;;;;;;16.15;9.52;;;7.00;99.90;;;;;;5025347;28;20074;-57
2021/04/14 08:15:28;;;;;;;24.08;10.70;;;7.00;99.90;;;;;;5026426;28;20029;-59
2021/04/14 08:18:22;;;;;;;19.48;8.43;;;7.10;99.90;;;;;;5022558;28;20103;-58
2021/04/14 08:21:03;;;;;;;17.55;9.32;;;7.10;99.90;;;;;;5028214;28;20030;-57
2021/04/14 08:23:31;;;;;;;19.95;8.65;;;7.20;99.90;;;;;;5024576;28;20065;-57
2021/04/14 08:25:59;;;;;;;16.98;8.25;;;7.20;99.90;;;;;;5022411;28;20483;-59
2021/04/14 08:28:26;;;;;;;21.35;8.38;;;7.30;99.90;;;;;;5035270;28;20091;-58
2021/04/14 08:30:51;;;;;;;13.73;7.45;;;7.40;99.90;;;;;;5029471;28;20031;-59
2021/04/14 08:33:19;;;;;;;17.20;8.27;;;7.40;99.90;;;;;;5025129;28;20026;-58
2021/04/14 08:35:50;;;;;;;15.73;8.13;;;7.50;99.90;;;;;;5028898;28;20391;-58
2021/04/14 08:38:24;;;;;;;18.00;8.05;;;7.60;99.90;;;;;;5020985;28;20037;-58
2021/04/14 08:40:59;;;;;;;16.48;7.32;;;7.70;99.90;;;;;;5032756;28;20069;-58
2021/04/14 08:43:32;;;;;;;13.80;6.68;;;7.60;99.90;;;;;;5033025;28;20364;-58
2021/04/14 08:46:16;;;;;;;16.58;8.60;;;7.50;99.90;;;;;;5025246;28;20037;-57
2021/04/14 08:48:46;;;;;;;12.73;6.82;;;7.50;99.90;;;;;;5010245;28;20030;-58
2021/04/14 08:51:15;;;;;;;15.93;7.88;;;7.50;99.90;;;;;;5036042;28;20351;-55
2021/04/14 08:53:43;;;;;;;16.23;6.97;;;7.70;99.90;;;;;;5002201;28;20025;-58
2021/04/14 08:56:10;;;;;;;10.68;6.75;;;7.70;99.90;;;;;;5029740;28;20024;-59
2021/04/14 08:58:36;;;;;;;16.73;6.68;;;7.60;99.90;;;;;;5029185;28;20042;-58
2021/04/14 09:01:02;;;;;;;12.70;7.18;;;7.50;99.90;;;;;;5031575;28;20031;-58
2021/04/14 09:03:32;;;;;;;17.95;7.50;;;7.40;99.90;;;;;;5026923;28;20056;-57
2021/04/14 09:05:59;;;;;;;15.27;7.88;;;7.20;99.90;;;;;;5035549;28;20032;-57
2021/04/14 09:08:33;;;;;;;12.30;7.28;;;7.10;99.90;;;;;;5046629;22;20046;-55
2021/04/14 09:11:00;;;;;;;13.82;7.25;;;6.90;99.90;;;;;;5028190;28;20021;-57
2021/04/14 09:13:42;;;;;;;16.90;7.70;;;6.70;99.90;;;;;;5026315;28;20108;-55
2021/04/14 09:16:08;;;;;;;15.68;8.85;;;6.60;99.90;;;;;;5028641;28;20128;-53
2021/04/14 09:18:40;;;;;;;28.27;9.98;;;6.50;99.90;;;;;;5031572;28;20499;-52
2021/04/14 09:21:16;;;;;;;22.48;11.02;;;6.40;99.90;;;;;;5027982;28;20029;-55
2021/04/14 09:23:57;;;;;;;18.88;11.15;;;6.40;99.90;;;;;;5035715;28;20491;-55
2021/04/14 09:26:30;;;;;;;20.73;11.82;;;6.40;99.90;;;;;;5026651;28;20025;-50
2021/04/14 09:28:56;;;;;;;24.20;11.63;;;6.40;99.90;;;;;;5030244;28;20042;-53
2021/04/14 09:31:39;;;;;;;26.10;11.93;;;6.40;99.90;;;;;;5030456;28;20044;-54
2021/04/14 09:34:29;;;;;;;21.50;12.20;;;6.40;99.90;;;;;;5024952;28;20030;-51
2021/04/14 09:37:06;;;;;;;19.75;11.57;;;6.50;99.90;;;;;;5029249;28;20523;-52
2021/04/14 09:40:00;;;;;;;20.55;11.70;;;6.60;99.90;;;;;;5025872;28;20364;-56
2021/04/14 09:42:29;;;;;;;22.60;13.13;;;6.70;99.90;;;;;;5033197;28;20017;-53
2021/04/14 09:44:57;;;;;;;25.13;13.60;;;6.80;99.90;;;;;;5038191;28;21106;-54
2021/04/14 09:47:25;;;;;;;25.40;13.73;;;6.80;99.90;;;;;;5025660;28;20638;-51
2021/04/14 09:49:52;;;;;;;27.67;13.80;;;6.80;99.90;;;;;;5029567;28;20603;-55
2021/04/14 09:52:26;;;;;;;24.45;14.10;;;6.90;99.90;;;;;;5025495;28;20098;-55
2021/04/14 09:55:07;;;;;;;27.00;13.98;;;6.90;99.90;;;;;;5031257;28;20113;-50
2021/04/14 09:57:38;;;;;;;35.92;13.60;;;7.10;99.90;;;;;;5027551;28;20059;-56
2021/04/14 10:00:06;;;;;;;23.65;12.73;;;7.30;99.90;;;;;;5029905;28;20087;-54
2021/04/14 10:02:37;;;;;;;21.52;12.10;;;7.50;99.90;;;;;;5030394;28;20722;-55
2021/04/14 10:05:03;;;;;;;26.42;11.45;;;7.60;99.90;;;;;;5033292;28;20127;-54
2021/04/14 10:07:33;;;;;;;21.63;10.82;;;7.70;99.90;;;;;;5038047;28;20033;-55
2021/04/14 10:10:09;;;;;;;19.17;10.55;;;7.60;99.90;;;;;;5030828;28;20060;-54
2021/04/14 10:12:35;;;;;;;20.25;11.85;;;7.50;99.90;;;;;;5033038;28;20026;-55
2021/04/14 10:15:04;;;;;;;20.15;10.18;;;7.60;99.90;;;;;;5031924;28;20025;-58
2021/04/14 10:17:31;;;;;;;19.38;9.65;;;7.70;99.90;;;;;;5030138;28;20064;-56
2021/04/14 10:20:29;;;;;;;26.67;12.60;;;7.90;99.90;;;;;;5033036;28;20029;-57
2021/04/14 10:22:55;;;;;;;19.48;11.50;;;8.00;99.90;;;;;;5034291;28;20026;-56
2021/04/14 10:25:35;;;;;;;24.55;12.05;;;7.90;99.90;;;;;;5029181;28;20025;-55
2021/04/14 10:28:14;;;;;;;26.27;12.32;;;7.80;99.90;;;;;;5030666;28;20033;-55
2021/04/14 10:30:44;;;;;;;20.70;12.07;;;7.80;99.90;;;;;;5033671;28;20040;-55
2021/04/14 10:33:18;;;;;;;20.45;12.43;;;7.80;99.90;;;;;;5034721;28;20533;-53
2021/04/14 10:35:44;;;;;;;24.13;12.38;;;7.90;99.90;;;;;;5030173;28;20036;-55
2021/04/14 10:38:10;;;;;;;25.30;12.63;;;8.20;99.90;;;;;;5034680;28;20065;-54
2021/04/14 10:40:39;;;;;;;21.23;12.35;;;8.50;99.90;;;;;;5035166;28;20068;-54
2021/04/14 10:43:12;;;;;;;24.23;13.32;;;8.90;99.90;;;;;;5028463;28;20021;-54
2021/04/14 10:45:53;;;;;;;25.00;12.55;;;9.00;99.90;;;;;;5035319;28;20144;-55
2021/04/14 10:48:19;;;;;;;25.15;12.98;;;8.90;99.90;;;;;;5028283;28;20022;-54
2021/04/14 10:50:45;;;;;;;23.65;12.55;;;9.10;99.90;;;;;;5022287;28;20021;-50
2021/04/14 10:53:12;;;;;;;21.25;10.98;;;9.40;99.90;;;;;;5030487;28;20494;-54
2021/04/14 10:55:41;;;;;;;21.23;11.40;;;9.70;99.90;;;;;;5034727;28;20104;-54
2021/04/14 10:58:08;;;;;;;22.75;11.93;;;9.90;99.90;;;;;;5033942;28;20029;-53
2021/04/14 11:00:37;;;;;;;26.15;12.25;;;9.90;99.90;;;;;;5036148;28;20045;-51
2021/04/14 11:03:13;;;;;;;20.88;11.73;;;10.10;99.90;;;;;;5026045;28;20049;-52
2021/04/14 11:05:50;;;;;;;19.50;10.85;;;10.00;99.90;;;;;;5028375;28;20239;-54
2021/04/14 11:08:17;;;;;;;20.88;10.43;;;10.00;99.90;;;;;;5025081;28;20056;-51
2021/04/14 11:10:44;;;;;;;14.85;9.18;;;10.20;99.90;;;;;;5028112;28;20079;-53
2021/04/14 11:13:19;;;;;;;18.95;11.10;;;10.70;99.90;;;;;;5024277;28;20120;-56
2021/04/14 11:15:48;;;;;;;20.95;11.05;;;10.80;99.90;;;;;;5022494;28;20032;-55
2021/04/14 11:18:16;;;;;;;19.20;9.60;;;10.40;99.90;;;;;;5025898;28;20031;-55
2021/04/14 11:20:43;;;;;;;18.48;10.35;;;10.00;99.90;;;;;;5029493;28;20029;-55
2021/04/14 11:23:23;;;;;;;18.50;10.93;;;9.60;99.90;;;;;;5036895;28;20021;-56
2021/04/14 11:25:49;;;;;;;19.55;11.07;;;9.30;99.90;;;;;;5029133;28;20028;-53
2021/04/14 11:28:19;;;;;;;19.77;11.68;;;9.30;99.90;;;;;;5031638;28;20024;-54
2021/04/14 11:30:56;;;;;;;17.42;10.02;;;9.60;99.90;;;;;;5027923;28;20510;-56
2021/04/14 11:33:35;;;;;;;15.70;10.45;;;9.70;99.90;;;;;;5031985;28;20029;-53
2021/04/14 11:36:01;;;;;;;17.67;10.65;;;10.10;99.90;;;;;;5028488;28;20128;-51
2021/04/14 11:38:28;;;;;;;19.38;10.52;;;10.60;99.90;;;;;;5026268;28;20472;-55
2021/04/14 11:40:54;;;;;;;14.93;9.45;;;10.90;99.90;;;;;;5027650;28;20499;-54
2021/04/14 11:43:35;;;;;;;18.58;10.90;;;10.70;99.90;;;;;;5033345;28;20029;-53
2021/04/14 11:46:08;;;;;;;15.63;10.32;;;10.10;99.90;;;;;;5028390;28;20029;-56
2021/04/14 11:48:38;;;;;;;17.92;10.38;;;9.80;99.90;;;;;;5031490;28;20454;-52
2021/04/14 11:51:12;;;;;;;19.35;9.95;;;9.70;99.90;;;;;;5026376;28;20033;-54
2021/04/14 11:53:52;;;;;;;17.73;10.25;;;9.50;99.90;;;;;;5028538;28;20021;-53
2021/04/14 11:56:28;;;;;;;16.15;9.85;;;9.40;99.90;;;;;;5036617;28;20029;-53
2021/04/14 11:58:54;;;;;;;16.73;10.02;;;9.30;99.90;;;;;;5027622;28;20025;-51
2021/04/14 12:01:26;;;;;;;17.05;9.15;;;9.30;99.90;;;;;;5023037;28;20295;-54
2021/04/14 12:03:52;;;;;;;18.33;8.88;;;9.40;99.90;;;;;;5022820;28;20040;-51
2021/04/14 12:06:20;;;;;;;15.95;8.90;;;9.50;99.90;;;;;;5031270;28;20022;-53
2021/04/14 12:08:45;;;;;;;15.68;9.40;;;9.80;99.90;;;;;;5032913;28;20033;-54
2021/04/14 12:11:23;;;;;;;17.00;9.65;;;10.50;99.90;;;;;;5038328;28;20029;-54
2021/04/14 12:13:48;;;;;;;12.48;8.18;;;10.60;99.90;;;;;;5026266;28;20590;-54
2021/04/14 12:16:15;;;;;;;12.10;7.85;;;10.30;99.90;;;;;;5027065;28;20033;-51
2021/04/14 12:18:41;;;;;;;11.80;7.10;;;10.00;99.90;;;;;;5027044;28;20055;-51
2021/04/14 12:21:08;;;;;;;12.60;7.70;;;9.60;99.90;;;;;;5029093;28;20084;-55
2021/04/14 12:23:34;;;;;;;13.70;7.97;;;9.20;99.90;;;;;;5028153;28;20075;-54
2021/04/14 12:25:59;;;;;;;16.48;8.75;;;8.80;99.90;;;;;;5022116;28;20037;-54
2021/04/14 12:28:25;;;;;;;12.80;7.70;;;8.70;99.90;;;;;;5024683;28;20084;-50
2021/04/14 12:30:50;;;;;;;13.70;8.32;;;8.60;99.90;;;;;;5031559;28;20151;-50
2021/04/14 12:33:16;;;;;;;17.60;8.15;;;8.50;99.90;;;;;;5026687;28;20025;-52
2021/04/14 12:35:42;;;;;;;12.80;8.45;;;8.40;99.90;;;;;;5028253;28;20017;-53
2021/04/14 12:38:07;;;;;;;16.85;8.68;;;8.20;99.90;;;;;;5027922;28;20056;-54
2021/04/14 12:40:33;;;;;;;16.23;8.82;;;8.30;99.90;;;;;;5031511;28;20419;-54
2021/04/14 12:42:59;;;;;;;13.63;7.85;;;8.30;99.90;;;;;;5009306;28;20406;-53
2021/04/14 12:45:50;;;;;;;15.55;8.27;;;8.30;99.90;;;;;;5024713;28;20029;-53
2021/04/14 12:48:23;;;;;;;16.33;8.75;;;8.40;99.90;;;;;;5025923;28;20476;-55
2021/04/14 12:51:22;;;;;;;14.25;8.75;;;8.70;99.90;;;;;;5027766;28;20021;-56
2021/04/14 12:53:54;;;;;;;17.30;8.93;;;9.20;99.90;;;;;;5029123;28;20049;-52
2021/04/14 12:56:29;;;;;;;14.63;7.82;;;9.80;99.90;;;;;;5022896;28;20119;-55
2021/04/14 12:59:00;;;;;;;18.63;8.63;;;10.20;99.90;;;;;;5020571;28;20524;-52